Ashwood, OR (97711)

4:57 PM PST on December 04, 2016 (GMT -0800)
Ashwood School | | Change Station

Elev 2552 ft 44.74 °N, 120.76 °W | Updated 4 minutes ago

Overcast
Overcast
32.5 °F
Feels Like 32 °F
N
0.0
Wind Variable Wind from NNW
Gusts 4.0 mph

Today
High -- | Low -- °F
--% Chance of Precip.
Yesterday
High -- | Low -- °F
Precip. -- in
Pressure 30.06 in
Visibility 10.0 miles
Clouds Few 900 ft
Mostly Cloudy 3200 ft
Overcast 7500 ft
Windchill 32 °F
Dew Point 24 °F
Humidity 72%
Rainfall 0.18 in
Snow Depth Not available.
7:24 AM 4:22 PM
Waxing Crescent, 27% visible
METAR KRDM 042356Z 00000KT 10SM FEW009 BKN032 OVC075 01/M02 A3001 RMK AO2 SLP178 60013 T00061022 10033 20006 53013
Pressure 30.06 in
Visibility 10.0 miles
Clouds Few 900 ft
Mostly Cloudy 3200 ft
Overcast 7500 ft
Windchill 32 °F
Dew Point 24 °F
Humidity 72%
Rainfall 0.18 in
Snow Depth Not available.
7:24 AM 4:22 PM
Waxing Crescent, 27% visible
METAR KRDM 042356Z 00000KT 10SM FEW009 BKN032 OVC075 01/M02 A3001 RMK AO2 SLP178 60013 T00061022 10033 20006 53013

10-Day Weather Forecast

Almanac

Astronomy

Dec. 04, 2016 Rise Set
Actual Time
Civil Twilight
Nautical Twilight
Astronomical Twilight
Moon
Length of Visible Light
Length of Day
Tomorrow will be .
, % of the Moon is Illuminated

Today's Extremes

State Highs State Lows

Community

WunderPhotos

Upload Photos

1,955,729 photos uploaded!

WunderBlog® & News

Nearby

Air Quality

  Air Quality AQ Index Pollutant
Not available.

Snow Depth

Station Depth Elevation

Earthquake Activity

City Distance Mag. Time & Date
Minimum magnitude displayed is 2.5.

Coastal Water Temperatures

Place Temperature

Stations

Nearby Weather Stations

Station Location Temp. Windchill Dew Point Humidity Wind Precip. Elev Updated Type
                   

Watches & Warnings

There are currently no watches in effect.